Time;durP1;ratioP1;P1;durP2;ratioP2;P2;SDS_P1;SDS_P2;PMS_P1;PMS_P2;Temp;Humidity;BMP_temperature;BMP_pressure;BME280_temperature;BME280_humidity;BME280_pressure;Samples;Min_cycle;Max_cycle;Signal;HPM_P1;HPM_P2
2022/12/23 00:00:25;;;;;;;682.90;633.10;;;9.80;99.90;;;;;;5020401;28;20465;-80
2022/12/23 00:02:51;;;;;;;681.60;631.80;;;9.80;99.90;;;;;;5020482;28;20477;-81
2022/12/23 00:05:18;;;;;;;680.53;631.10;;;9.90;99.90;;;;;;5020258;28;20453;-81
2022/12/23 00:07:45;;;;;;;678.67;629.57;;;9.90;99.90;;;;;;5019444;28;20947;-81
2022/12/23 00:10:13;;;;;;;677.53;628.47;;;9.90;99.90;;;;;;5019937;28;20457;-81
2022/12/23 00:15:24;;;;;;;669.33;620.87;;;9.90;99.90;;;;;;5019542;28;20480;-81
2022/12/23 00:17:51;;;;;;;672.10;624.30;;;9.90;99.90;;;;;;5019604;28;20468;-81
2022/12/23 00:20:18;;;;;;;666.43;618.33;;;9.80;99.90;;;;;;5019769;28;20453;-79
2022/12/23 00:25:40;;;;;;;680.60;631.60;;;9.90;99.90;;;;;;5019012;28;20432;-81
2022/12/23 00:28:10;;;;;;;685.73;636.83;;;9.90;99.90;;;;;;5019177;28;20877;-80
2022/12/23 00:30:37;;;;;;;668.90;620.70;;;9.90;99.90;;;;;;5018110;28;20484;-81
2022/12/23 00:33:07;;;;;;;672.87;624.57;;;9.90;99.90;;;;;;5019837;28;20541;-81
2022/12/23 00:35:34;;;;;;;663.37;615.47;;;9.90;99.90;;;;;;5019666;28;20846;-82
2022/12/23 00:38:00;;;;;;;670.93;623.50;;;9.90;99.90;;;;;;5019605;28;20461;-81
2022/12/23 00:43:21;;;;;;;673.97;626.47;;;9.90;99.90;;;;;;4994784;28;20928;-81
2022/12/23 00:45:48;;;;;;;667.00;619.17;;;9.90;99.90;;;;;;5020025;28;20453;-82
2022/12/23 00:50:59;;;;;;;687.10;639.00;;;10.00;99.90;;;;;;5019097;28;20421;-81
2022/12/23 00:53:28;;;;;;;695.70;646.40;;;9.90;99.90;;;;;;5018165;28;20480;-81
2022/12/23 00:55:58;;;;;;;692.10;643.43;;;10.00;99.90;;;;;;5019224;28;20492;-82
2022/12/23 00:58:27;;;;;;;703.10;653.67;;;10.00;99.90;;;;;;5019170;28;20536;-80
2022/12/23 01:06:32;;;;;;;684.07;635.03;;;9.90;99.90;;;;;;5019625;28;20424;-82
2022/12/23 01:09:05;;;;;;;685.87;636.47;;;9.90;99.90;;;;;;5017707;28;20475;-81
2022/12/23 01:11:39;;;;;;;677.27;627.20;;;9.90;99.90;;;;;;5019039;28;20914;-83
2022/12/23 01:14:16;;;;;;;679.87;629.47;;;9.90;99.90;;;;;;5019237;28;20567;-83
2022/12/23 01:16:44;;;;;;;685.30;635.20;;;9.90;99.90;;;;;;5019792;28;20456;-81
2022/12/23 01:19:13;;;;;;;689.43;638.47;;;9.90;99.90;;;;;;5019129;28;20552;-81
2022/12/23 01:21:42;;;;;;;687.30;635.77;;;9.90;99.90;;;;;;5018801;28;20848;-81
2022/12/23 01:24:11;;;;;;;691.97;640.90;;;9.80;99.90;;;;;;5018316;28;20481;-81
2022/12/23 01:26:46;;;;;;;697.57;646.40;;;9.70;99.90;;;;;;5018636;28;20511;-81
2022/12/23 01:29:18;;;;;;;706.93;653.97;;;9.60;99.90;;;;;;5018842;28;20855;-82
2022/12/23 01:31:49;;;;;;;703.73;650.20;;;9.70;99.90;;;;;;5018703;28;20464;-81
2022/12/23 01:34:21;;;;;;;709.90;654.20;;;9.70;99.90;;;;;;5019132;28;20473;-81
2022/12/23 01:36:49;;;;;;;696.23;642.23;;;9.70;99.90;;;;;;5018337;28;20449;-81
2022/12/23 01:39:23;;;;;;;700.50;645.60;;;9.90;99.90;;;;;;5017981;28;20481;-83
2022/12/23 01:45:14;;;;;;;693.03;638.13;;;9.90;99.90;;;;;;5018455;28;20511;-83
2022/12/23 01:47:57;;;;;;;689.77;636.40;;;9.90;99.90;;;;;;5018839;28;20560;-82
2022/12/23 01:50:33;;;;;;;696.60;643.13;;;9.90;99.90;;;;;;5018402;28;20531;-79
2022/12/23 01:53:07;;;;;;;681.50;628.27;;;10.00;99.90;;;;;;5018223;28;20913;-81
2022/12/23 01:55:38;;;;;;;677.17;624.47;;;10.00;99.90;;;;;;5017324;28;20902;-80
2022/12/23 01:58:12;;;;;;;679.97;627.20;;;10.10;99.90;;;;;;5016253;28;20558;-80
2022/12/23 02:03:41;;;;;;;709.87;652.80;;;10.10;99.90;;;;;;5017694;28;20464;-80
2022/12/23 02:12:06;;;;;;;728.93;667.67;;;10.00;99.90;;;;;;5017569;28;20507;-81
2022/12/23 02:17:56;;;;;;;736.00;672.57;;;9.90;99.90;;;;;;5018026;28;20433;-79
2022/12/23 02:21:01;;;;;;;737.70;674.30;;;10.00;99.90;;;;;;5017475;28;20520;-79
2022/12/23 02:24:06;;;;;;;730.40;666.70;;;10.00;99.90;;;;;;5016983;28;20473;-80
2022/12/23 02:27:02;;;;;;;728.37;664.70;;;9.90;99.90;;;;;;5017624;28;20540;-79
2022/12/23 02:30:11;;;;;;;728.80;665.20;;;9.90;99.90;;;;;;5017329;28;20456;-79
2022/12/23 02:32:53;;;;;;;742.23;678.00;;;9.90;99.90;;;;;;4995682;28;20848;-81
2022/12/23 02:35:27;;;;;;;734.97;671.80;;;10.00;99.90;;;;;;5017242;28;20472;-82
2022/12/23 02:38:00;;;;;;;741.37;679.37;;;10.00;99.90;;;;;;5017449;28;20443;-81
2022/12/23 02:40:35;;;;;;;732.40;671.50;;;10.00;99.90;;;;;;5016826;28;20448;-81
2022/12/23 02:43:09;;;;;;;703.47;644.30;;;10.10;99.90;;;;;;5016827;28;20478;-81
2022/12/23 02:45:41;;;;;;;700.23;643.03;;;10.00;99.90;;;;;;5018206;28;20438;-81
2022/12/23 02:48:13;;;;;;;702.87;646.57;;;10.10;99.90;;;;;;5017836;28;20437;-81
2022/12/23 02:50:42;;;;;;;694.07;639.87;;;10.10;99.90;;;;;;5018027;28;20444;-81
2022/12/23 02:53:15;;;;;;;691.43;638.63;;;10.10;99.90;;;;;;5017446;28;20484;-81
2022/12/23 02:55:46;;;;;;;686.10;633.77;;;10.10;99.90;;;;;;5020703;28;20471;-81
2022/12/23 02:58:16;;;;;;;687.40;634.47;;;10.10;99.90;;;;;;5021060;28;20468;-80
2022/12/23 03:00:44;;;;;;;694.17;642.03;;;10.10;99.90;;;;;;5020106;28;20441;-81
2022/12/23 03:03:12;;;;;;;679.63;628.73;;;10.10;99.90;;;;;;5021880;28;20472;-81
2022/12/23 03:05:43;;;;;;;682.70;632.67;;;10.10;99.90;;;;;;5021277;28;20504;-81
2022/12/23 03:08:15;;;;;;;671.10;622.37;;;10.10;99.90;;;;;;5020755;28;20456;-81
2022/12/23 03:10:54;;;;;;;646.83;601.67;;;10.20;99.90;;;;;;5021352;28;20448;-81
2022/12/23 03:13:30;;;;;;;643.47;598.97;;;10.20;99.90;;;;;;5020775;28;20483;-81
2022/12/23 03:16:07;;;;;;;663.80;617.77;;;10.10;99.90;;;;;;5021572;28;20465;-81
2022/12/23 03:18:48;;;;;;;674.30;628.60;;;10.20;99.90;;;;;;5020143;28;20978;-81
2022/12/23 03:21:22;;;;;;;672.27;626.10;;;10.10;99.90;;;;;;5020479;28;20835;-81
2022/12/23 03:23:56;;;;;;;671.90;625.77;;;10.10;99.90;;;;;;5020798;28;20479;-81
2022/12/23 03:26:30;;;;;;;672.23;626.40;;;10.10;99.90;;;;;;5020263;28;20456;-80
2022/12/23 03:29:01;;;;;;;676.13;630.07;;;10.10;99.90;;;;;;5019876;28;20884;-81
2022/12/23 03:31:30;;;;;;;647.60;602.43;;;10.00;99.90;;;;;;5019985;28;20828;-80
2022/12/23 03:34:03;;;;;;;650.07;603.17;;;10.10;99.90;;;;;;5018900;28;20480;-80
2022/12/23 03:36:34;;;;;;;671.10;621.53;;;10.00;99.90;;;;;;5019391;28;20430;-81
2022/12/23 03:39:04;;;;;;;685.93;634.50;;;10.00;99.90;;;;;;5020433;28;20441;-82
2022/12/23 03:41:36;;;;;;;680.43;628.13;;;9.90;99.90;;;;;;5020138;28;20451;-80
2022/12/23 03:44:07;;;;;;;691.10;637.80;;;9.90;99.90;;;;;;5020520;28;20475;-81
2022/12/23 03:46:38;;;;;;;703.20;649.00;;;9.90;99.90;;;;;;5020143;28;20455;-80
2022/12/23 03:49:10;;;;;;;701.43;647.57;;;9.90;99.90;;;;;;5020368;28;20457;-80
2022/12/23 03:51:44;;;;;;;697.60;643.63;;;9.90;99.90;;;;;;5019968;28;20441;-80
2022/12/23 03:54:18;;;;;;;701.17;646.87;;;9.90;99.90;;;;;;5019715;28;21032;-80
2022/12/23 03:56:49;;;;;;;706.57;651.70;;;9.90;99.90;;;;;;5020032;28;20461;-81
2022/12/23 03:59:21;;;;;;;718.47;662.70;;;9.80;99.90;;;;;;5019882;28;20444;-80
2022/12/23 04:01:58;;;;;;;696.10;640.50;;;9.70;99.90;;;;;;5019734;28;20946;-81
2022/12/23 04:04:30;;;;;;;697.23;642.00;;;9.80;99.90;;;;;;5019221;28;20488;-80
2022/12/23 04:07:00;;;;;;;697.33;643.03;;;9.80;99.90;;;;;;5019054;28;20457;-81
2022/12/23 04:09:28;;;;;;;694.33;641.40;;;9.80;99.90;;;;;;5019797;28;20961;-80
2022/12/23 04:11:56;;;;;;;703.20;651.03;;;9.70;99.90;;;;;;5019157;28;20453;-81
2022/12/23 04:14:23;;;;;;;701.07;649.23;;;9.80;99.90;;;;;;5019512;28;20473;-81
2022/12/23 04:16:56;;;;;;;692.70;643.40;;;9.70;99.90;;;;;;5019039;28;20449;-81
2022/12/23 04:19:23;;;;;;;691.60;643.50;;;9.80;99.90;;;;;;5018424;28;20469;-81
2022/12/23 04:21:51;;;;;;;677.10;630.07;;;9.80;99.90;;;;;;5017691;28;20465;-80
2022/12/23 04:24:17;;;;;;;661.63;615.50;;;9.70;99.90;;;;;;5018552;28;20477;-81
2022/12/23 04:26:44;;;;;;;655.07;608.97;;;9.70;99.90;;;;;;5018807;28;20870;-81
2022/12/23 04:29:11;;;;;;;660.17;615.60;;;9.80;99.90;;;;;;5018491;28;20464;-81
2022/12/23 04:31:38;;;;;;;650.23;607.83;;;9.80;99.90;;;;;;5018883;28;20888;-82
2022/12/23 04:34:04;;;;;;;639.93;600.23;;;9.80;99.90;;;;;;5018652;28;20473;-81
2022/12/23 04:36:31;;;;;;;628.93;590.83;;;9.80;99.90;;;;;;5018835;28;20488;-81
2022/12/23 04:38:59;;;;;;;625.63;587.43;;;9.80;99.90;;;;;;5018569;28;20463;-80
2022/12/23 04:41:26;;;;;;;619.70;581.80;;;9.80;99.90;;;;;;5018637;28;20841;-81
2022/12/23 04:43:53;;;;;;;613.33;577.53;;;9.70;99.90;;;;;;5018672;28;20474;-81
2022/12/23 04:46:20;;;;;;;618.80;581.77;;;9.80;99.90;;;;;;5018638;28;20968;-81
2022/12/23 04:48:46;;;;;;;597.57;564.83;;;9.80;99.90;;;;;;5019344;28;20461;-80
2022/12/23 04:51:13;;;;;;;590.90;558.17;;;9.90;99.90;;;;;;5018179;28;20821;-82
2022/12/23 04:53:40;;;;;;;590.13;557.87;;;9.80;99.90;;;;;;5019339;28;20473;-81
2022/12/23 04:56:09;;;;;;;592.87;561.00;;;9.80;99.90;;;;;;5018672;28;21024;-81
2022/12/23 04:58:36;;;;;;;597.57;565.17;;;9.80;99.90;;;;;;5018513;28;20463;-81
2022/12/23 05:01:04;;;;;;;598.90;566.30;;;9.80;99.90;;;;;;5018767;28;20464;-82
2022/12/23 05:03:31;;;;;;;607.33;573.30;;;9.60;99.90;;;;;;5018472;28;20477;-81
2022/12/23 05:05:58;;;;;;;614.13;579.10;;;9.60;99.90;;;;;;5018621;28;20456;-81
2022/12/23 05:08:25;;;;;;;624.27;587.97;;;9.40;99.90;;;;;;5018002;28;20457;-81
2022/12/23 05:10:51;;;;;;;638.77;600.00;;;9.30;99.90;;;;;;5018272;28;20449;-81
2022/12/23 05:13:20;;;;;;;657.17;614.97;;;9.20;99.90;;;;;;5017886;28;20480;-80
2022/12/23 05:15:48;;;;;;;662.60;617.27;;;9.30;99.90;;;;;;5016550;28;20477;-81
2022/12/23 05:18:16;;;;;;;678.10;631.00;;;9.20;99.90;;;;;;5016007;28;20465;-81
2022/12/23 05:20:42;;;;;;;670.23;621.90;;;9.30;99.90;;;;;;5016671;28;20459;-82
2022/12/23 05:23:13;;;;;;;681.20;633.27;;;9.30;99.90;;;;;;5016803;28;20480;-81
2022/12/23 05:25:40;;;;;;;699.97;651.27;;;9.40;99.90;;;;;;5016684;28;20449;-81
2022/12/23 05:28:08;;;;;;;703.37;654.70;;;9.50;99.90;;;;;;5015997;28;20458;-81
2022/12/23 05:30:36;;;;;;;690.53;643.57;;;9.40;99.90;;;;;;5017299;28;20488;-81
2022/12/23 05:33:03;;;;;;;689.27;642.47;;;9.70;99.90;;;;;;5015470;28;20994;-80
2022/12/23 05:35:30;;;;;;;662.37;617.30;;;9.60;99.90;;;;;;5015283;28;20477;-80
2022/12/23 05:37:57;;;;;;;666.53;622.10;;;9.60;99.90;;;;;;5015686;28;20461;-80
2022/12/23 05:40:23;;;;;;;665.80;620.20;;;9.60;99.90;;;;;;5015871;28;20522;-79
2022/12/23 05:42:50;;;;;;;668.03;621.80;;;9.50;99.90;;;;;;5014991;28;20477;-81
2022/12/23 05:45:17;;;;;;;665.43;619.10;;;9.50;99.90;;;;;;5015491;28;20449;-80
2022/12/23 05:47:45;;;;;;;681.10;633.10;;;9.40;99.90;;;;;;5015355;28;20458;-80
2022/12/23 05:50:12;;;;;;;685.93;636.73;;;9.40;99.90;;;;;;5015076;28;20475;-81
2022/12/23 05:52:39;;;;;;;691.40;641.50;;;9.50;99.90;;;;;;5015495;28;20477;-79
2022/12/23 05:55:07;;;;;;;689.13;640.27;;;9.50;99.90;;;;;;5014869;28;20452;-80
2022/12/23 05:57:33;;;;;;;667.87;619.07;;;9.60;99.90;;;;;;5015428;28;20456;-80
2022/12/23 06:00:00;;;;;;;656.97;608.60;;;9.60;99.90;;;;;;5014986;28;20465;-80
2022/12/23 06:02:27;;;;;;;654.77;608.10;;;9.60;99.90;;;;;;5015509;28;20457;-82
2022/12/23 06:04:55;;;;;;;648.73;601.73;;;9.70;99.90;;;;;;5014624;28;20453;-80
2022/12/23 06:07:21;;;;;;;660.40;615.80;;;9.70;99.90;;;;;;5016165;28;20461;-80
2022/12/23 06:09:48;;;;;;;650.37;607.20;;;9.70;99.90;;;;;;5015876;28;20457;-81
2022/12/23 06:12:15;;;;;;;649.90;607.37;;;9.70;99.90;;;;;;5015753;28;20488;-82
2022/12/23 06:14:42;;;;;;;646.40;604.57;;;9.70;99.90;;;;;;5015452;28;20457;-82
2022/12/23 06:17:08;;;;;;;655.47;614.00;;;9.70;99.90;;;;;;5015893;28;20492;-80
2022/12/23 06:19:35;;;;;;;645.73;605.50;;;9.80;99.90;;;;;;5015503;28;20461;-81
2022/12/23 06:22:30;;;;;;;626.37;588.93;;;9.80;99.90;;;;;;5015861;28;20452;-81
2022/12/23 06:24:57;;;;;;;617.00;582.00;;;9.90;99.90;;;;;;5011463;28;20477;-81
2022/12/23 06:27:24;;;;;;;593.20;561.60;;;9.90;99.90;;;;;;5016352;28;20510;-83
2022/12/23 06:29:51;;;;;;;591.43;559.37;;;10.00;99.90;;;;;;5018893;28;20826;-82
2022/12/23 06:32:43;;;;;;;575.33;544.60;;;9.90;99.90;;;;;;5019715;28;20464;-80
2022/12/23 06:35:10;;;;;;;530.17;503.17;;;10.00;99.90;;;;;;5019912;28;20506;-80
2022/12/23 06:37:58;;;;;;;502.77;477.87;;;10.00;99.90;;;;;;5019146;28;20457;-80
2022/12/23 06:40:27;;;;;;;502.37;477.47;;;10.10;99.90;;;;;;5018844;28;20449;-82
2022/12/23 06:42:54;;;;;;;474.23;451.37;;;10.10;99.90;;;;;;5020624;28;20571;-82
2022/12/23 06:45:22;;;;;;;464.17;441.67;;;10.00;99.90;;;;;;5020858;28;20453;-81
2022/12/23 06:47:48;;;;;;;463.20;441.00;;;10.00;99.90;;;;;;5020417;28;20969;-82
2022/12/23 06:50:15;;;;;;;467.27;443.60;;;10.00;99.90;;;;;;5021371;28;20450;-84
2022/12/23 06:52:44;;;;;;;469.93;447.00;;;9.90;99.90;;;;;;5021186;28;20473;-82
2022/12/23 06:55:12;;;;;;;487.95;463.80;;;9.90;99.90;;;;;;5021341;28;20484;-82
2022/12/23 06:57:39;;;;;;;500.93;476.10;;;9.80;99.90;;;;;;5021772;28;20461;-82
2022/12/23 07:00:07;;;;;;;516.27;489.80;;;9.80;99.90;;;;;;5020941;28;20453;-82
2022/12/23 07:02:34;;;;;;;537.23;509.80;;;9.80;99.90;;;;;;5021572;28;20849;-82
2022/12/23 07:05:01;;;;;;;544.87;515.57;;;9.80;99.90;;;;;;5021671;28;20457;-82
2022/12/23 07:07:27;;;;;;;557.00;526.93;;;9.80;99.90;;;;;;5021280;28;20453;-82
2022/12/23 07:09:54;;;;;;;576.43;544.07;;;9.80;99.90;;;;;;5020751;28;20453;-81
2022/12/23 07:12:22;;;;;;;593.97;558.67;;;9.80;99.90;;;;;;5020991;28;20464;-81
2022/12/23 07:14:49;;;;;;;601.57;565.77;;;9.80;99.90;;;;;;5021107;28;20453;-82
2022/12/23 07:17:16;;;;;;;614.23;576.13;;;9.80;99.90;;;;;;5021276;28;20477;-81
2022/12/23 07:19:43;;;;;;;635.03;595.67;;;9.70;99.90;;;;;;5020907;28;20460;-82
2022/12/23 07:22:11;;;;;;;657.13;617.10;;;9.70;99.90;;;;;;5021590;28;20464;-82
2022/12/23 07:24:38;;;;;;;655.93;614.63;;;9.70;99.90;;;;;;5021299;28;20484;-82
2022/12/23 07:27:05;;;;;;;644.87;603.97;;;9.80;99.90;;;;;;5020696;28;20464;-82
2022/12/23 07:30:00;;;;;;;648.50;607.50;;;9.80;99.90;;;;;;5020732;28;20461;-82
2022/12/23 07:32:27;;;;;;;637.93;596.00;;;9.90;99.90;;;;;;4997893;28;20488;-82
2022/12/23 07:34:53;;;;;;;633.47;592.87;;;9.80;99.90;;;;;;5020581;28;20540;-82
2022/12/23 07:37:20;;;;;;;627.93;586.67;;;9.80;99.90;;;;;;5020855;28;20512;-83
2022/12/23 07:39:47;;;;;;;634.87;592.23;;;9.70;99.90;;;;;;5020432;28;20462;-81
2022/12/23 07:42:46;;;;;;;638.80;596.50;;;9.80;99.90;;;;;;5020686;28;20489;-82
2022/12/23 07:45:36;;;;;;;644.80;600.57;;;9.70;99.90;;;;;;5016036;28;20457;-82
2022/12/23 07:48:03;;;;;;;653.87;608.70;;;9.70;99.90;;;;;;5015729;28;20951;-83
2022/12/23 07:50:30;;;;;;;658.03;611.97;;;9.60;99.90;;;;;;5020292;28;20465;-83
2022/12/23 07:52:57;;;;;;;662.47;615.13;;;9.70;99.90;;;;;;5020126;28;20481;-82
2022/12/23 07:55:24;;;;;;;673.50;625.00;;;9.60;99.90;;;;;;5019964;28;20899;-82
2022/12/23 08:01:14;;;;;;;679.20;629.37;;;9.60;99.90;;;;;;5001680;28;20548;-82
2022/12/23 08:03:41;;;;;;;668.77;619.07;;;9.60;99.90;;;;;;5020122;28;20512;-83
2022/12/23 08:06:11;;;;;;;681.57;629.90;;;9.60;99.90;;;;;;5020505;28;20455;-82
2022/12/23 08:09:10;;;;;;;683.20;631.10;;;9.60;99.90;;;;;;5020332;28;20463;-82
2022/12/23 08:12:02;;;;;;;685.83;632.97;;;9.60;99.90;;;;;;5019712;28;20453;-81
2022/12/23 08:14:28;;;;;;;677.27;624.77;;;9.60;99.90;;;;;;5011024;28;20473;-82
2022/12/23 08:16:56;;;;;;;680.87;627.57;;;9.50;99.90;;;;;;5018765;28;21063;-80
2022/12/23 08:19:29;;;;;;;685.90;632.23;;;9.50;99.90;;;;;;5019713;28;20473;-82
2022/12/23 08:22:09;;;;;;;685.77;631.60;;;9.50;99.90;;;;;;5019495;28;20457;-82
2022/12/23 08:24:36;;;;;;;681.67;627.40;;;9.60;99.90;;;;;;5019125;28;20488;-82
2022/12/23 08:27:03;;;;;;;691.33;637.30;;;9.70;99.90;;;;;;5019597;28;20484;-82
2022/12/23 08:29:30;;;;;;;703.70;649.77;;;9.70;99.90;;;;;;5019873;28;20461;-81
2022/12/23 08:32:10;;;;;;;681.87;628.37;;;9.70;99.90;;;;;;5019647;28;20489;-82
2022/12/23 08:34:37;;;;;;;685.40;632.07;;;9.70;99.90;;;;;;5018851;28;20475;-83
2022/12/23 08:40:21;;;;;;;698.27;645.47;;;9.80;99.90;;;;;;4956246;28;20829;-81
2022/12/23 08:42:47;;;;;;;689.00;637.20;;;9.80;99.90;;;;;;5018012;28;20477;-80
2022/12/23 08:45:14;;;;;;;681.17;630.13;;;9.80;99.90;;;;;;5016480;28;20454;-80
2022/12/23 08:47:42;;;;;;;689.93;638.53;;;9.70;99.90;;;;;;5016221;28;20480;-80
2022/12/23 08:50:10;;;;;;;677.67;626.47;;;9.80;99.90;;;;;;5016235;28;20466;-83
2022/12/23 08:52:37;;;;;;;679.77;628.57;;;9.80;99.90;;;;;;5015128;28;20911;-82
2022/12/23 08:55:04;;;;;;;681.77;630.87;;;9.90;99.90;;;;;;5016460;28;20460;-80
2022/12/23 08:57:31;;;;;;;678.23;627.43;;;9.90;99.90;;;;;;5016181;28;20484;-80
2022/12/23 08:59:58;;;;;;;670.03;620.60;;;9.90;99.90;;;;;;5016398;28;20453;-80
2022/12/23 09:02:24;;;;;;;659.63;609.90;;;10.00;99.90;;;;;;5015991;28;20843;-80
2022/12/23 09:04:52;;;;;;;651.67;603.37;;;10.00;99.90;;;;;;5016773;28;21003;-80
2022/12/23 09:07:19;;;;;;;654.70;606.70;;;10.00;99.90;;;;;;5017071;28;20453;-81
2022/12/23 09:09:55;;;;;;;662.10;615.10;;;10.00;99.90;;;;;;5018820;28;20545;-80
2022/12/23 09:12:50;;;;;;;641.53;595.40;;;10.10;99.90;;;;;;5018177;28;20827;-81
2022/12/23 09:15:23;;;;;;;633.00;587.97;;;10.10;99.90;;;;;;5109733;27;1255835;-79
2022/12/23 09:17:50;;;;;;;643.23;597.97;;;10.10;99.90;;;;;;5113051;28;20445;-80
2022/12/23 09:20:49;;;;;;;646.87;601.37;;;10.00;99.90;;;;;;5112930;28;20475;-79
2022/12/23 09:23:16;;;;;;;653.27;605.93;;;10.00;99.90;;;;;;5088556;28;20470;-79
2022/12/23 09:25:43;;;;;;;666.00;617.97;;;9.90;99.90;;;;;;5092104;28;20458;-82
2022/12/23 09:28:10;;;;;;;676.43;628.10;;;9.90;99.90;;;;;;5091399;28;20457;-79
2022/12/23 09:30:38;;;;;;;680.40;631.10;;;9.90;99.90;;;;;;5092031;28;20446;-80
2022/12/23 09:36:12;;;;;;;686.53;635.90;;;9.90;99.90;;;;;;5088567;28;20991;-80
2022/12/23 09:54:10;;;;;;;713.23;658.47;;;9.90;99.90;;;;;;5022882;28;20480;-80
2022/12/23 09:57:03;;;;;;;715.50;660.33;;;9.80;99.90;;;;;;5093116;28;20449;-80
2022/12/23 09:59:56;;;;;;;720.10;665.30;;;9.80;99.90;;;;;;5090345;28;20462;-80
2022/12/23 10:02:34;;;;;;;711.03;656.50;;;9.80;99.90;;;;;;5093430;28;20950;-80
2022/12/23 10:05:55;;;;;;;707.97;653.87;;;9.80;99.90;;;;;;5093733;28;20452;-81
2022/12/23 10:08:29;;;;;;;711.17;657.00;;;9.80;99.90;;;;;;5093822;28;20454;-80
2022/12/23 10:10:59;;;;;;;713.70;659.23;;;9.80;99.90;;;;;;5093310;28;20457;-81
2022/12/23 10:13:39;;;;;;;711.67;656.90;;;9.80;99.90;;;;;;5093683;28;20469;-80
2022/12/23 10:23:27;;;;;;;708.47;652.70;;;9.90;99.90;;;;;;5068399;28;20461;-80
2022/12/23 10:26:15;;;;;;;723.93;668.90;;;9.90;99.90;;;;;;5084312;28;20853;-82
2022/12/23 10:28:41;;;;;;;721.43;666.33;;;9.90;99.90;;;;;;5078843;28;20439;-80
2022/12/23 10:31:44;;;;;;;714.23;659.87;;;9.90;99.90;;;;;;5079096;28;20446;-81
2022/12/23 10:34:19;;;;;;;709.33;654.53;;;10.00;99.90;;;;;;5078646;28;20859;-80
2022/12/23 10:36:55;;;;;;;718.93;664.67;;;10.00;99.90;;;;;;5079668;28;20439;-80
2022/12/23 10:39:30;;;;;;;720.40;666.70;;;10.00;99.90;;;;;;5079506;28;20826;-80
2022/12/23 10:42:08;;;;;;;714.97;661.53;;;10.00;99.90;;;;;;5079343;28;20830;-81
2022/12/23 10:45:01;;;;;;;700.10;648.00;;;9.90;99.90;;;;;;5078889;28;20485;-80
2022/12/23 10:48:15;;;;;;;694.27;641.07;;;10.00;99.90;;;;;;5079303;28;20438;-80
2022/12/23 10:50:52;;;;;;;694.37;641.63;;;10.00;99.90;;;;;;5064371;28;20466;-81
2022/12/23 10:53:29;;;;;;;693.90;641.50;;;10.00;99.90;;;;;;5078805;28;20477;-82
2022/12/23 10:55:56;;;;;;;698.50;645.40;;;10.00;99.90;;;;;;5079036;28;20942;-80
2022/12/23 10:58:26;;;;;;;698.30;645.60;;;10.20;99.90;;;;;;5077803;28;20461;-80
2022/12/23 11:00:55;;;;;;;690.80;638.27;;;10.10;99.90;;;;;;5077803;28;20454;-80
2022/12/23 11:03:28;;;;;;;678.60;628.40;;;10.10;99.90;;;;;;5077975;28;20466;-81
2022/12/23 11:05:56;;;;;;;672.77;623.70;;;10.20;99.90;;;;;;5078756;28;20462;-80
2022/12/23 11:08:42;;;;;;;670.47;622.47;;;10.20;99.90;;;;;;5078089;28;20955;-80
2022/12/23 11:11:09;;;;;;;674.40;625.80;;;10.10;99.90;;;;;;5078025;28;20458;-80
2022/12/23 11:13:39;;;;;;;676.93;628.30;;;10.10;99.90;;;;;;5078292;28;20603;-80
2022/12/23 11:16:29;;;;;;;681.50;632.97;;;10.10;99.90;;;;;;5078831;28;20461;-80
2022/12/23 11:18:59;;;;;;;682.10;633.33;;;10.20;99.90;;;;;;5078130;28;20450;-80
2022/12/23 11:21:47;;;;;;;;;;;;;;;;;;;;;
2022/12/23 11:24:20;;;;;;;661.97;614.10;;;10.20;99.90;;;;;;5076648;28;20477;-80
2022/12/23 11:26:50;;;;;;;659.37;611.77;;;10.20;99.90;;;;;;5077910;28;20447;-81
2022/12/23 11:29:22;;;;;;;667.83;620.40;;;10.30;99.90;;;;;;5079485;28;20454;-81
2022/12/23 11:31:50;;;;;;;665.37;618.10;;;10.20;99.90;;;;;;5079211;28;20461;-82
2022/12/23 11:38:00;;;;;;;663.97;616.90;;;10.10;99.90;;;;;;5052301;28;20482;-80
2022/12/23 11:41:10;;;;;;;670.07;621.57;;;10.00;99.90;;;;;;4941056;28;20963;-79
2022/12/23 11:43:39;;;;;;;683.17;633.13;;;9.90;99.90;;;;;;5059198;22;20478;-80
2022/12/23 11:46:26;;;;;;;695.50;644.37;;;9.80;99.90;;;;;;5076054;28;20457;-79
2022/12/23 11:49:12;;;;;;;702.70;649.87;;;9.70;99.90;;;;;;5074325;28;20840;-80
2022/12/23 11:51:38;;;;;;;721.47;666.43;;;9.70;99.90;;;;;;5075705;28;20450;-80
2022/12/23 11:54:05;;;;;;;728.47;672.10;;;9.60;99.90;;;;;;5075822;28;20482;-80
2022/12/23 11:56:36;;;;;;;744.90;687.33;;;9.60;99.90;;;;;;5075656;28;20450;-80
2022/12/23 11:59:19;;;;;;;737.30;679.27;;;9.60;99.90;;;;;;5075364;28;20455;-80
2022/12/23 12:01:57;;;;;;;739.43;680.27;;;9.70;99.90;;;;;;5075318;28;20948;-80
2022/12/23 12:04:26;;;;;;;738.20;679.33;;;9.60;99.90;;;;;;5076033;28;20466;-80
2022/12/23 12:06:54;;;;;;;731.97;672.80;;;9.60;99.90;;;;;;5075588;28;20486;-80
2022/12/23 12:09:22;;;;;;;743.63;683.90;;;9.60;99.90;;;;;;5075311;28;20450;-80
2022/12/23 12:11:52;;;;;;;732.03;672.80;;;9.70;99.90;;;;;;5075355;28;20450;-80
2022/12/23 12:14:23;;;;;;;724.20;664.87;;;9.60;99.90;;;;;;5075846;28;20482;-80
2022/12/23 12:17:13;;;;;;;726.43;667.10;;;9.50;99.90;;;;;;5075356;28;20601;-80
2022/12/23 12:19:49;;;;;;;733.50;674.30;;;9.50;99.90;;;;;;5076034;28;20439;-80
2022/12/23 12:22:22;;;;;;;730.63;670.67;;;9.40;99.90;;;;;;5074618;28;20454;-79
2022/12/23 12:24:54;;;;;;;735.03;674.73;;;9.40;99.90;;;;;;5074915;28;20461;-80
2022/12/23 12:27:31;;;;;;;729.00;668.63;;;9.40;99.90;;;;;;5075611;28;20430;-80
2022/12/23 12:30:13;;;;;;;724.77;663.77;;;9.40;99.90;;;;;;5075505;28;20446;-80
2022/12/23 12:33:14;;;;;;;757.83;690.67;;;9.40;99.90;;;;;;5074813;28;20446;-80
2022/12/23 12:35:44;;;;;;;721.97;657.57;;;9.40;99.90;;;;;;5077441;28;20223;-82
2022/12/23 12:45:14;;;;;;;742.93;677.03;;;9.30;99.90;;;;;;5054827;28;20454;-81
2022/12/23 12:47:49;;;;;;;745.33;678.70;;;9.30;99.90;;;;;;5077041;28;20454;-80
2022/12/23 12:50:23;;;;;;;728.13;662.07;;;9.40;99.90;;;;;;5078089;28;20438;-80
2022/12/23 12:52:52;;;;;;;729.97;663.80;;;9.30;99.90;;;;;;5077248;28;21047;-82
2022/12/23 12:55:24;;;;;;;728.50;661.80;;;9.40;99.90;;;;;;5077728;28;20474;-80
2022/12/23 12:57:51;;;;;;;738.27;670.87;;;9.40;99.90;;;;;;5077148;28;20454;-81
2022/12/23 13:00:20;;;;;;;740.40;672.60;;;9.40;99.90;;;;;;5077119;28;20455;-80
2022/12/23 13:03:16;;;;;;;732.90;665.60;;;9.40;99.90;;;;;;5076997;28;20474;-81
2022/12/23 13:05:59;;;;;;;734.20;667.70;;;9.40;99.90;;;;;;5078275;28;20451;-81
2022/12/23 13:08:44;;;;;;;738.83;672.57;;;9.30;99.90;;;;;;5076908;28;20454;-82
2022/12/23 13:11:18;;;;;;;723.03;656.50;;;9.20;99.90;;;;;;5077183;28;20454;-81
2022/12/23 13:13:57;;;;;;;737.47;669.47;;;9.20;99.90;;;;;;5076304;28;20474;-81
2022/12/23 13:16:35;;;;;;;739.83;670.90;;;9.20;99.90;;;;;;5073303;28;20474;-81
2022/12/23 13:19:10;;;;;;;747.30;678.80;;;9.10;99.90;;;;;;5076470;28;20814;-81
2022/12/23 13:24:33;;;;;;;738.33;668.33;;;9.10;99.90;;;;;;5069384;28;20470;-82
2022/12/23 13:27:07;;;;;;;743.70;674.40;;;9.20;99.90;;;;;;5077240;28;20907;-82
2022/12/23 13:29:53;;;;;;;743.27;674.27;;;9.20;99.90;;;;;;5077302;28;20473;-82
2022/12/23 13:32:37;;;;;;;745.10;676.30;;;9.20;99.90;;;;;;5076622;28;20486;-81
2022/12/23 13:35:17;;;;;;;750.60;681.90;;;9.20;99.90;;;;;;5078033;28;20828;-82
2022/12/23 13:37:53;;;;;;;756.03;685.97;;;9.20;99.90;;;;;;5076657;28;20442;-82
2022/12/23 13:41:00;;;;;;;744.40;675.20;;;9.30;99.90;;;;;;5076732;28;20922;-80
2022/12/23 13:43:35;;;;;;;732.37;663.30;;;9.40;99.90;;;;;;5076401;28;20852;-82
2022/12/23 13:46:08;;;;;;;737.90;669.10;;;9.40;99.90;;;;;;5076365;28;20894;-82
2022/12/23 13:48:50;;;;;;;735.10;666.00;;;9.30;99.90;;;;;;5077254;28;20469;-81
2022/12/23 13:51:26;;;;;;;736.03;667.00;;;9.40;99.90;;;;;;5077223;28;20950;-82
2022/12/23 13:54:01;;;;;;;737.13;668.63;;;9.40;99.90;;;;;;5077535;28;20480;-81
2022/12/23 13:56:33;;;;;;;738.90;670.00;;;9.50;99.90;;;;;;5078171;28;20477;-81
2022/12/23 13:59:01;;;;;;;733.33;663.27;;;9.50;99.90;;;;;;5077751;28;20458;-81
2022/12/23 14:01:42;;;;;;;743.80;674.13;;;9.40;99.90;;;;;;5080899;28;20461;-81